Time;durP1;ratioP1;P1;durP2;ratioP2;P2;SDS_P1;SDS_P2;PMS_P1;PMS_P2;Temp;Humidity;BMP_temperature;BMP_pressure;BME280_temperature;BME280_humidity;BME280_pressure;Samples;Min_cycle;Max_cycle;Signal;HPM_P1;HPM_P2
2020/12/28 00:06:49;;;;;;;13.83;9.23;;;;;;;-1.94;79.87;97699.77;493626;1142;65560;-61
2020/12/28 00:16:54;;;;;;;16.67;9.67;;;;;;;-1.86;79.63;97667.64;494713;1144;65210;-66
2020/12/28 00:26:58;;;;;;;15.70;9.30;;;;;;;-1.80;79.69;97647.70;493626;1144;65184;-64
2020/12/28 00:37:02;;;;;;;16.60;9.17;;;;;;;-1.73;79.57;97626.77;493680;1144;65133;-64
2020/12/28 00:47:06;;;;;;;13.33;8.40;;;;;;;-1.62;79.81;97608.25;493775;1144;65603;-67
2020/12/28 00:57:10;;;;;;;10.23;7.93;;;;;;;-1.54;80.04;97595.05;493879;1144;65108;-67
2020/12/28 01:07:15;;;;;;;14.60;7.95;;;;;;;-1.47;80.00;97564.70;494402;1144;65114;-65
2020/12/28 01:17:21;;;;;;;13.20;9.07;;;;;;;-1.37;79.62;97541.91;493993;1144;65610;-65
2020/12/28 01:27:25;;;;;;;11.43;7.43;;;;;;;-1.29;79.92;97532.08;493772;1144;65112;-66
2020/12/28 01:37:29;;;;;;;14.00;7.90;;;;;;;-1.12;79.92;97538.98;493374;1144;65187;-66
2020/12/28 01:47:33;;;;;;;11.23;7.63;;;;;;;-1.06;79.94;97527.53;493555;1144;65123;-67
2020/12/28 01:57:38;;;;;;;12.90;9.37;;;;;;;-1.02;79.82;97501.55;493819;1144;65210;-69
2020/12/28 02:07:43;;;;;;;14.25;9.10;;;;;;;-0.96;80.33;97473.80;493553;1144;65144;-68
2020/12/28 02:17:48;;;;;;;13.43;8.60;;;;;;;-0.95;80.27;97475.45;493719;1144;65102;-67
2020/12/28 02:27:53;;;;;;;12.53;7.47;;;;;;;-0.97;80.29;97447.22;493239;1144;65554;-66
2020/12/28 02:37:57;;;;;;;14.03;7.70;;;;;;;-0.97;81.00;97442.06;493255;1144;65227;-67
2020/12/28 02:48:01;;;;;;;13.25;8.50;;;;;;;-0.92;80.31;97441.83;493637;1144;65205;-66
2020/12/28 02:58:05;;;;;;;14.77;9.37;;;;;;;-0.85;81.25;97407.08;494096;1144;65136;-65
2020/12/28 03:08:09;;;;;;;11.57;8.17;;;;;;;-0.76;80.54;97405.75;493812;1144;65124;-63
2020/12/28 03:18:13;;;;;;;11.13;8.90;;;;;;;-0.63;80.74;97393.05;494094;1144;65146;-64
2020/12/28 03:28:21;;;;;;;10.70;7.27;;;;;;;-0.44;81.55;97396.31;493721;1144;66658;-64
2020/12/28 03:38:25;;;;;;;12.87;7.43;;;;;;;-0.38;80.67;97381.41;493987;1144;65578;-64
2020/12/28 03:48:30;;;;;;;11.17;6.47;;;;;;;-0.39;81.49;97354.80;494292;1144;65574;-68
2020/12/28 03:58:35;;;;;;;10.93;7.30;;;;;;;-0.45;81.97;97350.81;493813;1144;65593;-65
2020/12/28 04:08:39;;;;;;;9.93;6.20;;;;;;;-0.45;81.92;97345.66;493658;1144;65781;-67
2020/12/28 04:18:43;;;;;;;9.97;7.63;;;;;;;-0.40;81.73;97342.83;493691;1144;65226;-66
2020/12/28 04:28:49;;;;;;;8.65;6.40;;;;;;;-0.30;82.39;97358.61;493428;1144;65201;-66
2020/12/28 04:38:53;;;;;;;11.43;6.63;;;;;;;-0.26;81.64;97339.45;493784;1144;65138;-65
2020/12/28 04:48:57;;;;;;;7.90;6.35;;;;;;;-0.20;81.93;97308.17;494002;1144;65098;-65
2020/12/28 04:59:01;;;;;;;12.35;8.40;;;;;;;-0.18;83.01;97302.91;493809;1144;65149;-63
2020/12/28 05:09:11;;;;;;;12.90;6.95;;;;;;;-0.11;83.26;97286.17;493420;1144;65159;-67
2020/12/28 05:19:19;;;;;;;10.70;6.90;;;;;;;-0.05;83.17;97277.25;493698;1144;65414;-69
2020/12/28 05:29:25;;;;;;;9.63;6.00;;;;;;;0.02;83.71;97282.88;493543;1144;65194;-69
2020/12/28 05:39:31;;;;;;;9.65;6.40;;;;;;;0.01;83.82;97283.80;493736;1144;65493;-70
2020/12/28 05:49:37;;;;;;;8.50;5.30;;;;;;;-0.03;83.76;97283.14;493761;1144;65165;-66
2020/12/28 05:59:41;;;;;;;8.58;5.37;;;;;;;0.04;83.61;97268.98;493998;1144;65111;-67
2020/12/28 06:09:45;;;;;;;8.40;5.10;;;;;;;0.17;84.57;97273.41;494107;1144;65695;-65
2020/12/28 06:20:01;;;;;;;7.45;5.65;;;;;;;0.28;84.23;97276.19;494235;1144;65127;-69
2020/12/28 06:30:13;;;;;;;7.30;5.07;;;;;;;0.33;84.87;97235.44;493092;1144;65338;-65
2020/12/28 06:40:30;;;;;;;6.63;4.60;;;;;;;0.43;84.47;97250.37;493457;1144;65172;-66
2020/12/28 06:50:35;;;;;;;6.23;4.53;;;;;;;0.52;83.96;97237.75;493931;1144;65507;-70
2020/12/28 07:00:39;;;;;;;5.40;3.93;;;;;;;0.68;84.12;97237.62;494017;1144;65209;-70
2020/12/28 07:10:43;;;;;;;5.53;4.43;;;;;;;0.84;84.42;97227.17;493817;1143;65134;-63
2020/12/28 07:20:56;;;;;;;4.90;3.17;;;;;;;1.11;84.05;97239.30;493812;1144;65134;-62
2020/12/28 07:31:06;;;;;;;5.93;3.77;;;;;;;1.89;84.06;97239.48;494869;1144;66612;-66
2020/12/28 07:41:14;;;;;;;6.07;4.07;;;;;;;2.62;82.68;97224.23;494387;1144;65586;-63
2020/12/28 07:51:19;;;;;;;;;;;;;;;3.30;82.15;97202.23;493877;1144;65182;-71
2020/12/28 08:01:31;;;;;;;5.20;4.30;;;;;;;5.91;79.29;97186.48;494892;1144;65133;-66
2020/12/28 08:11:35;;;;;;;5.17;3.80;;;;;;;7.80;76.20;97196.28;495341;1144;65130;-64
2020/12/28 08:21:41;;;;;;;5.03;4.23;;;;;;;9.17;72.56;97191.45;493740;1144;65081;-70
2020/12/28 08:31:45;;;;;;;4.83;4.30;;;;;;;9.63;70.39;97180.91;493974;1144;65089;-66
2020/12/28 08:41:54;;;;;;;4.30;3.10;;;;;;;10.30;68.39;97152.49;493414;1144;65114;-70
2020/12/28 08:52:09;;;;;;;4.83;4.00;;;;;;;10.51;66.90;97152.95;493667;1144;65155;-60
2020/12/28 09:02:17;;;;;;;4.13;3.73;;;;;;;11.37;65.59;97120.46;493739;1144;65474;-62
2020/12/28 09:12:21;;;;;;;4.57;3.33;;;;;;;12.01;63.46;97113.64;494039;1144;65208;-61
2020/12/28 09:22:25;;;;;;;4.07;3.67;;;;;;;11.98;62.03;97085.86;493576;1144;65889;-63
2020/12/28 09:32:30;;;;;;;5.17;4.37;;;;;;;10.60;62.90;97082.11;493430;1143;65216;-63
2020/12/28 09:42:34;;;;;;;5.07;4.27;;;;;;;7.77;65.29;97068.54;501415;1143;65114;-65
2020/12/28 09:52:38;;;;;;;6.73;4.60;;;;;;;6.38;68.25;97058.36;493077;1143;65558;-67
2020/12/28 10:02:42;;;;;;;4.90;4.07;;;;;;;5.93;69.61;97041.31;493919;1143;65127;-67
2020/12/28 10:12:46;;;;;;;6.80;4.50;;;;;;;5.59;70.89;97032.02;494136;1143;65114;-61
2020/12/28 10:22:51;;;;;;;5.90;4.60;;;;;;;5.36;71.47;96998.34;494168;1143;65138;-65
2020/12/28 10:32:55;;;;;;;10.15;5.35;;;;;;;5.23;72.12;96992.53;493940;1143;65120;-65
2020/12/28 10:42:59;;;;;;;5.50;4.50;;;;;;;5.25;73.02;96975.00;494696;1144;65675;-65
2020/12/28 10:53:03;;;;;;;8.20;5.50;;;;;;;5.39;73.42;96992.87;494387;1143;65698;-63
2020/12/28 11:03:09;;;;;;;7.73;5.33;;;;;;;5.54;72.73;96988.15;494057;1143;65175;-67
2020/12/28 11:13:13;;;;;;;6.37;4.70;;;;;;;5.70;72.82;96946.00;493993;1144;65543;-66
2020/12/28 11:23:17;;;;;;;6.27;4.63;;;;;;;5.82;72.54;96933.69;494340;1143;65117;-64
2020/12/28 11:33:21;;;;;;;6.33;4.67;;;;;;;5.79;72.81;96902.71;494082;1143;65138;-64
2020/12/28 11:43:27;;;;;;;8.85;5.20;;;;;;;5.60;72.89;96880.91;494059;1143;65704;-64
2020/12/28 11:53:31;;;;;;;7.73;6.07;;;;;;;5.39;73.17;96880.97;494401;1143;65210;-64
2020/12/28 12:03:35;;;;;;;6.47;4.20;;;;;;;5.24;73.45;96888.31;494250;1144;65127;-68
2020/12/28 12:13:39;;;;;;;7.80;4.93;;;;;;;5.18;73.68;96875.84;493911;1144;65127;-62
2020/12/28 12:23:43;;;;;;;10.00;5.70;;;;;;;5.25;74.11;96870.94;493652;1143;65098;-62
2020/12/28 12:33:48;;;;;;;5.10;4.60;;;;;;;5.21;74.36;96866.96;493955;1143;65137;-62
2020/12/28 12:43:52;;;;;;;6.30;5.00;;;;;;;5.16;74.48;96854.34;494220;1143;65108;-64
2020/12/28 12:53:56;;;;;;;7.05;4.35;;;;;;;5.13;74.24;96865.83;493999;1143;65178;-58
2020/12/28 13:04:01;;;;;;;7.60;4.60;;;;;;;5.11;73.87;96861.70;494237;1143;65269;-59
2020/12/28 13:14:05;;;;;;;6.73;4.93;;;;;;;5.05;74.69;96856.08;493820;1143;65458;-63
2020/12/28 13:24:09;;;;;;;7.47;5.20;;;;;;;5.02;74.41;96848.55;494181;1143;65446;-64
2020/12/28 13:34:13;;;;;;;5.17;4.07;;;;;;;5.01;74.31;96849.48;494382;1143;65153;-63
2020/12/28 13:44:17;;;;;;;6.10;4.47;;;;;;;5.03;73.84;96847.59;493927;1143;65201;-67
2020/12/28 13:54:21;;;;;;;7.77;5.17;;;;;;;5.01;74.32;96864.27;494045;1143;65114;-67
2020/12/28 14:04:25;;;;;;;8.67;4.60;;;;;;;4.99;73.77;96867.00;494193;1143;65566;-63
2020/12/28 14:14:29;;;;;;;8.13;5.50;;;;;;;4.94;74.12;96878.74;493843;1144;65138;-67
2020/12/28 14:24:33;;;;;;;7.37;5.03;;;;;;;4.88;73.83;96877.48;494407;1143;65138;-64
2020/12/28 14:34:37;;;;;;;7.77;5.47;;;;;;;4.81;73.74;96900.58;494357;1144;65139;-66
2020/12/28 14:44:42;;;;;;;8.00;5.67;;;;;;;4.72;73.91;96896.14;493711;1143;65140;-65
2020/12/28 14:54:45;;;;;;;8.73;4.73;;;;;;;4.79;73.67;96902.48;493564;1143;65370;-66
2020/12/28 15:04:49;;;;;;;7.60;4.53;;;;;;;4.82;73.09;96906.61;493561;1143;65175;-64
2020/12/28 15:14:53;;;;;;;9.57;5.53;;;;;;;4.89;72.95;96916.37;493783;1144;65133;-64
2020/12/28 15:24:57;;;;;;;7.17;4.40;;;;;;;4.91;72.85;96917.06;494067;1143;65188;-66
2020/12/28 15:35:02;;;;;;;10.37;5.27;;;;;;;4.91;71.95;96927.45;494006;1143;65200;-65
2020/12/28 15:45:06;;;;;;;8.10;5.60;;;;;;;4.90;72.87;96940.58;494107;1143;65101;-63
2020/12/28 15:55:11;;;;;;;7.00;5.05;;;;;;;4.84;72.41;96944.52;493921;1143;65098;-64
2020/12/28 16:05:15;;;;;;;9.57;6.10;;;;;;;4.81;71.75;96933.56;494342;1143;65152;-64
2020/12/28 16:15:18;;;;;;;10.57;5.93;;;;;;;4.75;71.94;96940.10;494065;1143;65206;-65
2020/12/28 16:25:23;;;;;;;9.77;6.40;;;;;;;4.72;71.80;96951.56;494200;1144;65129;-64
2020/12/28 16:35:27;;;;;;;11.43;7.80;;;;;;;4.65;71.75;96960.00;493983;1143;65154;-64
2020/12/28 16:45:31;;;;;;;13.15;8.20;;;;;;;4.54;71.62;96981.66;485774;1144;10001526;-63
2020/12/28 16:55:38;;;;;;;10.98;7.30;;;;;;;4.38;71.94;96997.66;493630;1144;65265;-64
2020/12/28 17:05:42;;;;;;;18.25;10.50;;;;;;;4.26;72.53;96989.90;493326;1143;65138;-62
2020/12/28 17:15:46;;;;;;;10.47;6.50;;;;;;;4.10;71.77;96995.52;507912;1143;65604;-63
2020/12/28 17:25:50;;;;;;;9.37;6.10;;;;;;;4.09;71.91;96988.64;493769;1143;65178;-65
2020/12/28 17:35:54;;;;;;;12.10;6.97;;;;;;;4.05;72.39;96987.25;485942;1143;10001520;-64
2020/12/28 17:45:58;;;;;;;11.50;7.23;;;;;;;3.89;71.74;96990.22;493847;1144;65116;-63
2020/12/28 17:56:02;;;;;;;10.40;6.30;;;;;;;3.69;71.51;96971.83;493528;1143;65133;-62
2020/12/28 18:06:10;;;;;;;10.20;5.80;;;;;;;3.71;71.65;96984.70;493413;1142;65488;-65
2020/12/28 18:16:16;;;;;;;13.10;7.10;;;;;;;3.81;71.14;96998.62;493731;1143;65114;-65
2020/12/28 18:26:21;;;;;;;10.10;6.40;;;;;;;3.91;70.92;97006.50;493679;1143;65493;-67
2020/12/28 18:36:25;;;;;;;9.95;5.40;;;;;;;4.03;70.28;97007.32;494031;1143;65111;-62
2020/12/28 18:46:31;;;;;;;14.20;7.60;;;;;;;4.07;70.01;97008.72;493581;1144;65237;-62
2020/12/28 18:56:39;;;;;;;10.53;4.93;;;;;;;3.93;70.05;96994.25;493704;1143;65494;-71
2020/12/28 19:06:49;;;;;;;13.55;7.12;;;;;;;3.72;70.30;96987.19;493305;1143;65146;-69
2020/12/28 19:16:54;;;;;;;8.97;5.97;;;;;;;3.57;70.37;96986.60;493870;1143;65089;-60
2020/12/28 19:26:59;;;;;;;9.67;5.23;;;;;;;3.39;70.82;97006.16;493939;1143;65567;-63
2020/12/28 19:37:03;;;;;;;9.00;6.03;;;;;;;3.21;71.38;96996.26;493717;1143;65361;-61
2020/12/28 19:47:07;;;;;;;9.07;4.90;;;;;;;3.14;71.60;96993.30;493420;1144;65491;-61
2020/12/28 19:57:11;;;;;;;7.97;5.23;;;;;;;3.26;71.79;96982.95;494083;1143;65553;-60
2020/12/28 20:07:15;;;;;;;9.95;6.40;;;;;;;3.30;71.98;96979.16;493584;1143;65181;-62
2020/12/28 20:17:22;;;;;;;8.80;4.90;;;;;;;3.29;71.46;96956.77;493313;1143;65113;-62
2020/12/28 20:27:26;;;;;;;6.87;4.93;;;;;;;3.26;71.37;96957.02;493374;1143;65118;-61
2020/12/28 20:37:30;;;;;;;9.43;4.93;;;;;;;3.23;71.58;96952.87;493629;1144;65115;-61
2020/12/28 20:47:37;;;;;;;7.03;5.53;;;;;;;3.15;71.75;96942.25;493379;1143;65527;-61
2020/12/28 20:57:41;;;;;;;9.28;5.78;;;;;;;3.14;71.57;96933.66;493096;1143;65204;-62
2020/12/28 21:07:45;;;;;;;8.67;5.40;;;;;;;3.19;71.64;96941.91;493123;1144;65197;-60
2020/12/28 21:17:49;;;;;;;8.43;5.60;;;;;;;3.30;71.66;96940.26;493301;1142;65117;-62
2020/12/28 21:27:53;;;;;;;9.17;5.47;;;;;;;3.44;71.21;96937.42;493268;1144;65876;-61
2020/12/28 21:37:57;;;;;;;11.40;6.20;;;;;;;3.57;71.40;96931.27;493494;1143;65152;-61
2020/12/28 21:48:01;;;;;;;7.57;5.40;;;;;;;3.72;71.67;96921.47;493654;1143;65509;-61
2020/12/28 21:58:05;;;;;;;6.47;5.57;;;;;;;3.84;71.07;96899.72;493637;1143;65149;-62
2020/12/28 22:08:09;;;;;;;5.77;4.30;;;;;;;3.95;71.01;96900.64;493986;1143;65134;-61
2020/12/28 22:18:13;;;;;;;6.33;4.27;;;;;;;4.06;71.83;96885.86;493902;1143;65207;-72
2020/12/28 22:28:17;;;;;;;6.30;5.13;;;;;;;4.17;72.14;96869.39;492879;1143;65203;-60
2020/12/28 22:38:21;;;;;;;6.73;4.17;;;;;;;4.26;72.08;96870.41;492941;1143;65212;-67
2020/12/28 22:48:25;;;;;;;6.13;4.10;;;;;;;4.30;71.82;96858.83;493574;1143;65139;-67
2020/12/28 22:58:29;;;;;;;5.80;4.83;;;;;;;4.36;72.49;96860.10;493951;1143;65345;-65
2020/12/28 23:08:33;;;;;;;7.77;4.93;;;;;;;4.41;72.65;96842.34;493757;1143;65133;-68
2020/12/28 23:18:37;;;;;;;4.57;3.93;;;;;;;4.51;72.26;96858.02;493604;1143;65367;-67
2020/12/28 23:28:44;;;;;;;5.10;4.40;;;;;;;4.61;72.24;96848.47;493972;1143;65137;-68
2020/12/28 23:38:48;;;;;;;5.23;4.03;;;;;;;4.69;72.73;96821.86;493510;1143;65143;-66
2020/12/28 23:48:52;;;;;;;5.70;4.23;;;;;;;4.79;72.86;96803.69;493522;1143;65363;-68
2020/12/28 23:59:01;;;;;;;6.70;4.95;;;;;;;4.87;73.29;96779.63;493315;1143;65535;-68
